ADDS METAR Data INFO
IDs: Format: Raw Decoded Include TAF

Data at: 1840 UTC 16 Dec 2017

PARY 161835Z AUTO 08006KT 3SM -SN BR BKN022 BKN028 OVC032 M06/M07 A2912 RMK AO2 P0000 FZRANO
PARY 161821Z AUTO 09005KT 1 3/4SM -SN BR BKN022 OVC032 M06/M07 A2912 RMK AO2 P0000 FZRANO
PARY 161809Z AUTO 08005KT 2 1/2SM -SN BR FEW004 OVC022 M06/M07 A2911 RMK AO2 P0000 FZRANO
PARY 161756Z AUTO 07005KT 2 1/2SM -SN BR OVC022 M06/M07 A2911 RMK AO2 VIS 2V5 SLP887 P0000 60000 T10561067 11039 21056 53003 FZRANO
PARY 161738Z AUTO 08008KT 3SM -SN BR OVC022 M06/M07 A2911 RMK AO2 P0000 FZRANO
PARY 161717Z AUTO 07007KT 2 1/2SM -SN BR OVC020 M06/M07 A2911 RMK AO2 P0000 FZRANO
PARY 161656Z AUTO 08008KT 3SM -SN BR OVC020 M06/M07 A2910 RMK AO2 SLP885 P0000 T10561067 FZRANO
PARY 161625Z AUTO 07008KT 5SM -SN BR BKN024 OVC031 M05/M06 A2910 RMK AO2 P0000 FZRANO
PARY 161556Z AUTO 08008KT 5SM -SN BR OVC031 M05/M06 A2910 RMK AO2 SLP883 P0000 T10501061 FZRANO
PARY 161456Z AUTO 08009KT 8SM -SN BKN023 OVC030 M04/M06 A2910 RMK AO2 SLP884 P0000 60000 T10441061 58003 FZRANO
PARY 161356Z AUTO 07009KT 3SM -SN BR OVC020 M05/M06 A2911 RMK AO2 SLP887 P0000 T10501061 FZRANO
PARY 161337Z AUTO 08010KT 3SM -SN BR OVC020 M04/M06 A2911 RMK AO2 P0000 FZRANO
PARY 161310Z AUTO 08011G16KT 2 1/2SM -SN BR SCT020 BKN026 OVC033 M04/M06 A2911 RMK AO2 P0000 FZRANO
PARY 161256Z AUTO 08012G18KT 7SM -SN BKN031 BKN040 OVC048 M04/M07 A2911 RMK AO2 SNB37 SLP887 P0000 T10391067 FZRANO
PARY 161156Z AUTO 06006KT 10SM BKN050 OVC065 M04/M06 A2911 RMK AO2 SLP888 60000 T10441061 11039 21044 56008 FZRANO
PARY 161056Z AUTO 08010KT 10SM OVC070 M04/M06 A2911 RMK AO2 SLP889 T10441061 FZRANO
PARY 160956Z AUTO 08011KT 10SM OVC100 M04/M06 A2912 RMK AO2 SLP891 T10391056 FZRANO
PARY 151913Z AUTO 08012KT 10SM -SN SCT003 SCT014 OVC025 M08/M09 A2944 RMK AO2 SNB09 P0000 FZRANO
PARY 151856Z AUTO 08011KT 10SM BKN003 OVC013 M08/M09 A2944 RMK AO2 SNE15 SLP999 P0000 T10781094 FZRANO
PARY 151835Z AUTO 07009KT 10SM BKN003 OVC046 M08/M10 A2945 RMK AO2 SNE15 CIG 002V007 P0000 FZRANO
PARY 151756Z AUTO 07006KT 9SM -SN BKN005 OVC050 M08/M10 A2946 RMK AO2 SLP007 P0000 60000 T10831100 11078 21106 58022 FZRANO
PARY 151703Z AUTO 07006KT 5SM -SN BR SCT007 SCT045 OVC060 M09/M10 A2949 RMK AO2 P0000 FZRANO
PARY 151656Z AUTO 07007KT 7SM -SN BKN007 BKN046 OVC060 M09/M10 A2950 RMK AO2 SLP018 P0000 T10891100 FZRANO
PARY 151637Z AUTO 07007KT 8SM -SN BKN005 OVC048 M09/M10 A2951 RMK AO2 CIG 003V008 P0000 FZRANO
PARY 151609Z AUTO 07008KT 9SM -SN OVC003 M09/M11 A2951 RMK AO2 P0000 FZRANO
PARY 151556Z AUTO 07008KT 2SM -SN BR OVC003 M09/M11 A2952 RMK AO2 VIS 1 1/4V4 SNB19 CIG 001V006 SLP025 P0000 T10891106 FZRANO
PARY 151506Z AUTO 07008KT 10SM BKN003 BKN032 OVC065 M09/M11 A2953 RMK AO2 CIG 002V017 FZRANO
PARY 151456Z AUTO 07008KT 10SM SCT003 BKN060 OVC090 M09/M11 A2953 RMK AO2 SLP029 60000 T10891106 56012 FZRANO
PARY 151454Z AUTO 08007KT 10SM FEW003 BKN060 OVC090 M09/M11 A2953 RMK AO2 FZRANO
PARY 151356Z AUTO 06006KT 10SM BKN060 OVC070 M09/M11 A2955 RMK AO2 SNB03E13 SLP035 P0000 T10941111 FZRANO
PARY 151256Z AUTO 00000KT 10SM OVC060 M09/M11 A2957 RMK AO2 SLP040 T10891106 FZRANO
PARY 151156Z AUTO 00000KT 10SM BKN090 BKN120 M08/M09 A2957 RMK AO2 SLP044 70001 T10781094 11078 21100 58003 FZRANO
PARY 151056Z AUTO 29003KT 10SM FEW001 BKN110 M09/M11 A2958 RMK AO2 SLP045 T10941111 FZRANO
PARY 151045Z AUTO 29003KT 10SM SCT001 BKN120 M10/M12 A2958 RMK AO2 FZRANO
PARY 151038Z AUTO 31004KT 5SM BR BKN001 M10/M12 A2958 RMK AO2 FZRANO
PARY 151029Z AUTO 30004KT 6SM BR SCT001 M10/M12 A2958 RMK AO2 FZRANO
PARY 150956Z AUTO 00000KT 10SM CLR M09/M12 A2958 RMK AO2 SLP045 T10941117 FZRANO
PARY 150856Z AUTO 23003KT 10SM CLR M09/M11 A2958 RMK AO2 SLP043 T10891106 55001 FZRANO
PARY 150804Z AUTO 22003KT 10SM FEW002 M09/M11 A2958 RMK AO2 FZRANO
PARY 150756Z AUTO 23003KT 10SM CLR M09/M11 A2957 RMK AO2 SLP042 T10941111 410061094 FZRANO
PARY 150656Z AUTO 28003KT 10SM FEW002 M09/M11 A2957 RMK AO2 SLP045 T10941111 FZRANO
PARY 150647Z AUTO 28003KT 10SM SCT002 M09/M11 A2957 RMK AO2 FZRANO